createdAt,value
2023-03-21T00:01:05.124Z,60.28
2023-03-21T00:03:36.801Z,58.75
2023-03-21T00:06:09.688Z,56.17
2023-03-21T00:08:41.130Z,46.80
2023-03-21T00:11:14.130Z,46.72
2023-03-21T00:13:44.555Z,47.25
2023-03-21T00:16:25.241Z,52.60
2023-03-21T00:19:03.297Z,54.67
2023-03-21T00:21:51.913Z,46.67
2023-03-21T00:24:29.066Z,39.35
2023-03-21T00:29:51.983Z,40.75
2023-03-21T00:32:23.697Z,47.95
2023-03-21T00:35:11.742Z,43.20
2023-03-21T00:37:45.123Z,42.90
2023-03-21T00:40:26.694Z,42.80
2023-03-21T00:43:01.438Z,47.92
2023-03-21T00:45:32.176Z,41.38
2023-03-21T00:48:05.650Z,45.70
2023-03-21T00:50:36.506Z,44.25
2023-03-21T00:53:07.429Z,51.63
2023-03-21T00:55:38.771Z,49.10
2023-03-21T00:58:11.406Z,59.75
2023-03-21T01:00:42.113Z,59.83
2023-03-21T01:03:24.566Z,52.30
2023-03-21T01:06:05.815Z,55.72
2023-03-21T01:08:54.093Z,58.92
2023-03-21T01:11:28.337Z,53.08
2023-03-21T01:14:18.791Z,50.35
2023-03-21T01:16:52.179Z,49.42
2023-03-21T01:19:40.972Z,49.65
2023-03-21T01:22:15.298Z,49.30
2023-03-21T01:24:55.131Z,43.72
2023-03-21T01:27:29.156Z,48.60
2023-03-21T01:30:02.495Z,58.80
2023-03-21T01:35:04.114Z,55.25
2023-03-21T01:37:34.739Z,60.95
2023-03-21T01:40:12.812Z,57.10
2023-03-21T01:42:45.018Z,60.10
2023-03-21T01:46:11.919Z,58.85
2023-03-21T01:49:10.352Z,57.85
2023-03-21T01:51:47.471Z,55.78
2023-03-21T01:54:27.158Z,60.22
2023-03-21T01:57:01.823Z,61.90
2023-03-21T01:59:42.142Z,58.47
2023-03-21T02:02:18.197Z,61.08
2023-03-21T02:05:05.452Z,58.90
2023-03-21T02:07:37.946Z,51.08
2023-03-21T02:10:16.058Z,52.10
2023-03-21T02:12:51.379Z,45.95
2023-03-21T02:15:23.723Z,56.95
2023-03-21T02:18:18.408Z,52.47
2023-03-21T02:21:32.985Z,57.55
2023-03-21T02:25:01.340Z,57.30
2023-03-21T02:27:39.127Z,56.28
2023-03-21T02:31:09.567Z,59.67
2023-03-21T02:34:16.376Z,50.53
2023-03-21T02:37:36.644Z,49.95
2023-03-21T02:40:15.979Z,53.80
2023-03-21T02:43:01.343Z,51.03
2023-03-21T02:45:44.383Z,53.20
2023-03-21T02:48:31.091Z,54.63
2023-03-21T02:51:07.764Z,55.45
2023-03-21T02:53:45.189Z,59.75
2023-03-21T02:56:16.007Z,58.58
2023-03-21T02:58:52.172Z,62.03
2023-03-21T03:01:26.099Z,61.13
2023-03-21T03:03:59.208Z,60.33
2023-03-21T03:06:44.858Z,58.70
2023-03-21T03:09:32.594Z,57.45
2023-03-21T03:12:12.422Z,58.97
2023-03-21T03:15:03.010Z,53.35
2023-03-21T03:17:51.118Z,49.17
2023-03-21T03:20:34.378Z,49.30
2023-03-21T03:23:22.714Z,48.10
2023-03-21T03:26:02.183Z,48.65
2023-03-21T03:28:40.428Z,51.33
2023-03-21T03:31:26.184Z,52.55
2023-03-21T03:34:08.475Z,52.53
2023-03-21T03:36:47.849Z,51.70
2023-03-21T03:39:20.736Z,44.17
2023-03-21T03:42:21.776Z,45.83
2023-03-21T03:45:02.858Z,44.05
2023-03-21T03:47:54.197Z,41.00
2023-03-21T03:50:32.884Z,50.35
2023-03-21T03:53:18.083Z,49.95
2023-03-21T03:55:52.916Z,48.55
2023-03-21T03:58:39.746Z,46.83
2023-03-21T04:01:15.698Z,45.60
2023-03-21T04:03:54.562Z,46.67
2023-03-21T04:06:30.239Z,46.85
2023-03-21T04:09:03.466Z,52.40
2023-03-21T04:11:36.438Z,51.28
2023-03-21T04:14:08.582Z,48.05
2023-03-21T04:16:39.604Z,43.00
2023-03-21T04:19:10.506Z,43.42
2023-03-21T04:21:41.542Z,48.28
2023-03-21T04:24:14.031Z,50.10
2023-03-21T04:26:47.969Z,53.47
2023-03-21T04:29:43.639Z,49.17
2023-03-21T04:32:40.818Z,51.60
2023-03-21T04:35:16.219Z,52.65
2023-03-21T04:37:46.653Z,50.97
2023-03-21T04:40:19.278Z,44.45
2023-03-21T04:42:50.597Z,53.67
2023-03-21T04:45:22.751Z,54.15
2023-03-21T04:47:53.328Z,57.45
2023-03-21T04:50:24.211Z,55.10
2023-03-21T04:52:54.744Z,38.83
2023-03-21T04:55:26.773Z,52.78
2023-03-21T04:57:57.297Z,53.05
2023-03-21T05:00:29.594Z,44.35
2023-03-21T05:03:00.301Z,58.15
2023-03-21T05:05:31.822Z,54.50
2023-03-21T05:08:02.377Z,65.15
2023-03-21T05:10:33.138Z,57.20
2023-03-21T05:13:03.709Z,54.80
2023-03-21T05:18:12.213Z,54.72
2023-03-21T05:21:00.299Z,61.83
2023-03-21T05:26:11.589Z,59.17
2023-03-21T05:28:57.221Z,60.88
2023-03-21T05:31:30.452Z,60.75
2023-03-21T05:34:09.733Z,69.13
2023-03-21T05:36:41.634Z,69.63
2023-03-21T05:39:14.284Z,66.63
2023-03-21T05:41:50.647Z,68.18
2023-03-21T05:44:21.067Z,63.05
2023-03-21T05:46:53.307Z,67.00
2023-03-21T05:49:29.816Z,63.28
2023-03-21T05:52:04.238Z,62.08
2023-03-21T05:54:35.150Z,63.53
2023-03-21T05:57:06.895Z,62.05
2023-03-21T05:59:57.865Z,63.78
2023-03-21T06:02:30.188Z,54.72
2023-03-21T06:05:04.784Z,54.45
2023-03-21T06:07:37.230Z,61.45
2023-03-21T06:10:10.111Z,51.63
2023-03-21T06:15:32.418Z,53.13
2023-03-21T06:18:14.400Z,49.33
2023-03-21T06:20:54.542Z,52.20
2023-03-21T06:23:25.353Z,52.78
2023-03-21T06:25:55.860Z,46.95
2023-03-21T06:28:29.126Z,53.35
2023-03-21T06:31:00.021Z,53.45
2023-03-21T06:33:33.692Z,53.93
2023-03-21T06:36:04.374Z,50.78
2023-03-21T06:38:38.102Z,50.40
2023-03-21T06:41:10.492Z,49.95
2023-03-21T06:43:46.341Z,50.65
2023-03-21T06:46:17.100Z,50.88
2023-03-21T06:48:49.805Z,49.00
2023-03-21T06:51:20.466Z,47.78
2023-03-21T06:54:05.764Z,44.88
2023-03-21T06:56:43.470Z,39.33
2023-03-21T06:59:16.512Z,43.65
2023-03-21T07:02:04.166Z,42.45
2023-03-21T07:04:41.034Z,44.05
2023-03-21T07:07:17.076Z,47.20
2023-03-21T07:09:48.021Z,45.17
2023-03-21T07:12:18.551Z,41.58
2023-03-21T07:15:09.188Z,41.53
2023-03-21T07:17:40.470Z,38.67
2023-03-21T07:20:14.362Z,39.80
2023-03-21T07:25:17.586Z,36.88
2023-03-21T07:27:47.953Z,37.72
2023-03-21T07:30:19.644Z,35.38
2023-03-21T07:32:50.105Z,36.22
2023-03-21T07:35:22.802Z,34.20
2023-03-21T07:37:53.586Z,31.93
2023-03-21T07:40:24.216Z,33.58
2023-03-21T07:42:54.855Z,27.27
2023-03-21T07:45:33.978Z,26.52
2023-03-21T07:48:04.743Z,23.05
2023-03-21T07:50:39.776Z,22.88
2023-03-21T07:53:11.008Z,21.80
2023-03-21T07:55:41.758Z,25.10
2023-03-21T07:58:12.173Z,27.25
2023-03-21T08:00:43.053Z,29.48
2023-03-21T08:03:13.598Z,16.98
2023-03-21T08:05:47.004Z,17.70
2023-03-21T08:08:17.544Z,18.25
2023-03-21T08:10:48.941Z,16.80
2023-03-21T08:13:19.551Z,19.33
2023-03-21T08:15:50.426Z,20.73
2023-03-21T08:18:20.959Z,21.95
2023-03-21T08:20:55.837Z,17.70
2023-03-21T08:23:27.230Z,18.05
2023-03-21T08:25:58.849Z,19.20
2023-03-21T08:28:29.492Z,16.98
2023-03-21T08:31:00.325Z,17.20
2023-03-21T08:33:30.947Z,14.80
2023-03-21T08:36:03.957Z,18.75
2023-03-21T08:38:35.099Z,15.20
2023-03-21T08:41:06.264Z,15.98
2023-03-21T08:43:36.898Z,20.15
2023-03-21T08:46:08.565Z,15.40
2023-03-21T08:48:39.892Z,15.13
2023-03-21T08:51:12.262Z,20.98
2023-03-21T08:53:44.167Z,19.85
2023-03-21T08:56:15.085Z,19.35
2023-03-21T08:58:45.877Z,13.95
2023-03-21T09:01:16.738Z,17.42
2023-03-21T09:03:47.144Z,20.42
2023-03-21T09:06:19.304Z,15.60
2023-03-21T09:08:52.850Z,18.55
2023-03-21T09:11:23.948Z,16.58
2023-03-21T09:13:54.396Z,17.00
2023-03-21T09:16:25.226Z,13.35
2023-03-21T09:18:57.268Z,13.73
2023-03-21T09:21:29.978Z,13.10
2023-03-21T09:24:00.828Z,17.15
2023-03-21T09:26:32.039Z,16.55
2023-03-21T09:29:06.063Z,13.57
2023-03-21T09:31:37.177Z,14.57
2023-03-21T09:34:08.337Z,19.27
2023-03-21T09:36:42.208Z,18.83
2023-03-21T09:42:08.554Z,19.55
2023-03-21T09:44:54.395Z,19.73
2023-03-21T09:47:29.416Z,19.48
2023-03-21T09:50:14.199Z,22.42
2023-03-21T09:52:53.075Z,19.45
2023-03-21T09:55:26.778Z,21.88
2023-03-21T09:58:06.861Z,22.10
2023-03-21T10:00:42.233Z,19.45
2023-03-21T10:03:23.911Z,15.88
2023-03-21T10:05:58.811Z,19.52
2023-03-21T10:08:36.642Z,22.70
2023-03-21T10:11:14.656Z,20.15
2023-03-21T10:13:51.299Z,23.35
2023-03-21T10:16:28.587Z,20.20
2023-03-21T10:19:02.361Z,16.88
2023-03-21T10:24:28.299Z,18.05
2023-03-21T10:26:59.349Z,20.17
2023-03-21T10:29:37.251Z,22.25
2023-03-21T10:32:11.933Z,16.17
2023-03-21T10:34:47.113Z,21.75
2023-03-21T10:37:18.557Z,19.27
2023-03-21T10:39:53.245Z,22.83
2023-03-21T10:42:27.445Z,21.67
2023-03-21T10:45:00.108Z,20.42
2023-03-21T10:47:34.843Z,21.60
2023-03-21T10:50:10.427Z,21.88
2023-03-21T10:52:47.559Z,25.35
2023-03-21T10:55:26.589Z,23.00
2023-03-21T10:58:02.883Z,22.77
2023-03-21T11:00:39.063Z,25.98
2023-03-21T11:03:23.021Z,24.70
2023-03-21T11:05:57.496Z,23.33
2023-03-21T11:08:28.614Z,20.83
2023-03-21T11:11:06.863Z,27.05
2023-03-21T11:13:41.537Z,23.30
2023-03-21T11:16:20.753Z,23.88
2023-03-21T11:18:53.555Z,20.50
2023-03-21T11:21:29.681Z,23.33
2023-03-21T11:24:00.486Z,22.77
2023-03-21T11:26:36.859Z,26.27
2023-03-21T11:29:27.534Z,23.08
2023-03-21T11:32:02.611Z,23.83
2023-03-21T11:34:47.461Z,24.35
2023-03-21T11:37:29.079Z,26.10
2023-03-21T11:40:20.077Z,28.15
2023-03-21T11:42:54.622Z,27.38
2023-03-21T11:45:27.865Z,29.45
2023-03-21T11:48:01.958Z,32.80
2023-03-21T11:50:36.461Z,28.65
2023-03-21T11:53:29.492Z,28.30
2023-03-21T11:56:17.541Z,29.52
2023-03-21T11:59:22.137Z,29.10
2023-03-21T12:04:56.503Z,27.33
2023-03-21T12:07:49.859Z,29.27
2023-03-21T12:10:37.780Z,25.88
2023-03-21T12:13:37.198Z,30.00
2023-03-21T12:16:41.548Z,34.58
2023-03-21T12:19:30.235Z,35.35
2023-03-21T12:22:12.154Z,24.95
2023-03-21T12:24:52.314Z,30.08
2023-03-21T12:27:37.739Z,31.85
2023-03-21T12:30:33.458Z,29.50
2023-03-21T12:33:30.500Z,37.10
2023-03-21T12:36:20.478Z,35.13
2023-03-21T12:39:04.946Z,35.42
2023-03-21T12:41:42.022Z,33.90
2023-03-21T12:44:16.981Z,29.08
2023-03-21T12:46:52.999Z,33.20
2023-03-21T12:49:33.462Z,32.58
2023-03-21T12:52:08.555Z,33.67
2023-03-21T12:54:42.952Z,28.17
2023-03-21T12:57:19.937Z,27.25
2023-03-21T12:59:57.223Z,29.92
2023-03-21T13:02:33.827Z,31.17
2023-03-21T13:05:18.878Z,29.00
2023-03-21T13:07:56.472Z,26.75
2023-03-21T13:10:27.400Z,28.27
2023-03-21T13:13:14.324Z,29.85
2023-03-21T13:16:05.123Z,24.33
2023-03-21T13:18:51.810Z,28.38
2023-03-21T13:21:39.541Z,34.10
2023-03-21T13:24:27.417Z,32.50
2023-03-21T13:27:06.835Z,26.40
2023-03-21T13:29:49.818Z,29.92
2023-03-21T13:32:30.945Z,32.35
2023-03-21T13:35:05.129Z,25.95
2023-03-21T13:37:41.876Z,30.00
2023-03-21T13:40:24.521Z,29.75
2023-03-21T13:42:59.827Z,33.35
2023-03-21T13:45:34.486Z,29.48
2023-03-21T13:48:27.013Z,24.08
2023-03-21T13:51:03.304Z,25.55
2023-03-21T13:53:38.737Z,28.98
2023-03-21T13:56:24.479Z,31.13
2023-03-21T13:59:01.512Z,30.75
2023-03-21T14:01:41.770Z,25.95
2023-03-21T14:04:17.438Z,22.55
2023-03-21T14:06:55.784Z,25.85
2023-03-21T14:09:35.637Z,28.48
2023-03-21T14:12:12.704Z,31.88
2023-03-21T14:14:47.743Z,27.73
2023-03-21T14:17:26.097Z,30.05
2023-03-21T14:20:00.822Z,27.02
2023-03-21T14:22:31.824Z,29.35
2023-03-21T14:25:12.508Z,27.77
2023-03-21T14:27:47.074Z,27.63
2023-03-21T14:30:25.762Z,29.30
2023-03-21T14:32:58.981Z,29.08
2023-03-21T14:35:32.865Z,28.95
2023-03-21T14:38:06.119Z,29.98
2023-03-21T14:40:38.718Z,30.10
2023-03-21T14:43:12.814Z,29.33
2023-03-21T14:45:43.922Z,30.58
2023-03-21T14:48:16.631Z,29.92
2023-03-21T14:50:50.893Z,31.17
2023-03-21T14:53:24.306Z,27.77
2023-03-21T14:56:01.106Z,28.75
2023-03-21T14:58:32.844Z,28.42
2023-03-21T15:01:08.908Z,26.67
2023-03-21T15:03:39.688Z,26.75
2023-03-21T15:06:15.262Z,26.65
2023-03-21T15:08:57.530Z,28.52
2023-03-21T15:11:36.182Z,26.88
2023-03-21T15:14:11.040Z,28.42
2023-03-21T15:16:42.105Z,28.75
2023-03-21T15:19:20.860Z,27.98
2023-03-21T15:21:57.888Z,27.90
2023-03-21T15:24:31.598Z,26.00
2023-03-21T15:27:07.503Z,27.75
2023-03-21T15:29:38.221Z,27.38
2023-03-21T15:32:16.498Z,27.33
2023-03-21T15:34:47.475Z,23.92
2023-03-21T15:37:23.786Z,29.27
2023-03-21T15:39:55.568Z,26.27
2023-03-21T15:42:31.203Z,26.08
2023-03-21T15:45:10.080Z,27.00
2023-03-21T15:47:54.928Z,27.90
2023-03-21T15:50:35.606Z,27.17
2023-03-21T15:53:13.217Z,27.85
2023-03-21T15:55:50.169Z,29.83
2023-03-21T15:58:26.548Z,31.98
2023-03-21T16:01:03.110Z,30.90
2023-03-21T16:03:38.276Z,30.20
2023-03-21T16:06:19.584Z,30.45
2023-03-21T16:08:53.038Z,29.35
2023-03-21T16:11:28.581Z,30.13
2023-03-21T16:14:00.761Z,29.85
2023-03-21T16:16:32.620Z,30.63
2023-03-21T16:19:04.357Z,31.45
2023-03-21T16:21:38.376Z,30.50
2023-03-21T16:24:11.547Z,30.75
2023-03-21T16:26:47.727Z,32.35
2023-03-21T16:29:21.401Z,30.48
2023-03-21T16:31:51.938Z,31.13
2023-03-21T16:34:23.257Z,32.20
2023-03-21T16:36:53.668Z,32.55
2023-03-21T16:39:27.092Z,32.22
2023-03-21T16:41:58.278Z,30.25
2023-03-21T16:44:30.590Z,34.65
2023-03-21T16:47:02.462Z,32.38
2023-03-21T16:49:33.467Z,34.05
2023-03-21T16:52:04.351Z,33.20
2023-03-21T16:54:35.103Z,34.33
2023-03-21T16:57:08.068Z,33.22
2023-03-21T17:02:16.524Z,32.45
2023-03-21T17:04:47.540Z,33.08
2023-03-21T17:07:18.199Z,33.72
2023-03-21T17:09:49.057Z,33.53
2023-03-21T17:12:19.453Z,33.40
2023-03-21T17:14:51.712Z,33.95
2023-03-21T17:17:22.472Z,32.15
2023-03-21T17:19:53.406Z,31.65
2023-03-21T17:22:24.506Z,31.02
2023-03-21T17:24:55.494Z,33.22
2023-03-21T17:27:25.960Z,33.35
2023-03-21T17:29:58.841Z,33.60
2023-03-21T17:32:29.659Z,34.30
2023-03-21T17:35:00.677Z,35.00
2023-03-21T17:37:31.385Z,32.03
2023-03-21T17:40:02.461Z,34.30
2023-03-21T17:42:33.180Z,34.10
2023-03-21T17:45:06.251Z,32.28
2023-03-21T17:47:38.300Z,34.13
2023-03-21T17:50:18.674Z,32.90
2023-03-21T17:52:50.721Z,33.50
2023-03-21T17:55:22.633Z,33.20
2023-03-21T17:57:53.396Z,33.15
2023-03-21T18:00:27.958Z,33.17
2023-03-21T18:02:59.219Z,33.80
2023-03-21T18:05:30.341Z,32.85
2023-03-21T18:08:10.236Z,37.15
2023-03-21T18:10:43.264Z,35.05
2023-03-21T18:13:14.481Z,35.17
2023-03-21T18:15:48.304Z,35.90
2023-03-21T18:18:19.746Z,37.88
2023-03-21T18:20:53.807Z,38.05
2023-03-21T18:23:25.178Z,40.28
2023-03-21T18:25:56.380Z,37.30
2023-03-21T18:28:27.889Z,38.03
2023-03-21T18:31:10.312Z,41.58
2023-03-21T18:33:45.387Z,40.53
2023-03-21T18:36:24.732Z,40.55
2023-03-21T18:38:57.625Z,40.67
2023-03-21T18:41:29.456Z,43.85
2023-03-21T18:44:05.284Z,43.35
2023-03-21T18:46:48.234Z,42.75
2023-03-21T18:52:10.675Z,38.28
2023-03-21T18:54:43.313Z,40.15
2023-03-21T18:57:35.047Z,40.30
2023-03-21T19:00:11.110Z,43.88
2023-03-21T19:02:47.876Z,44.90
2023-03-21T19:05:22.936Z,48.13
2023-03-21T19:07:54.629Z,51.35
2023-03-21T19:10:26.058Z,51.83
2023-03-21T19:12:57.884Z,50.45
2023-03-21T19:15:28.603Z,53.00
2023-03-21T19:20:58.674Z,51.30
2023-03-21T19:23:40.895Z,49.15
2023-03-21T19:26:20.396Z,48.80
2023-03-21T19:28:51.723Z,47.08
2023-03-21T19:31:24.283Z,46.15
2023-03-21T19:33:57.318Z,45.17
2023-03-21T19:36:28.531Z,44.88
2023-03-21T19:38:59.548Z,44.92
2023-03-21T19:41:31.452Z,42.80
2023-03-21T19:44:02.761Z,43.53
2023-03-21T19:46:33.564Z,43.80
2023-03-21T19:49:06.714Z,44.10
2023-03-21T19:51:37.686Z,43.50
2023-03-21T19:54:09.648Z,45.08
2023-03-21T19:56:47.064Z,47.70
2023-03-21T19:59:20.035Z,49.33
2023-03-21T20:01:56.411Z,50.50
2023-03-21T20:04:31.264Z,49.88
2023-03-21T20:07:01.950Z,50.33
2023-03-21T20:09:52.501Z,53.13
2023-03-21T20:12:23.918Z,54.13
2023-03-21T20:15:07.017Z,53.30
2023-03-21T20:17:42.445Z,55.47
2023-03-21T20:20:18.384Z,54.53
2023-03-21T20:23:06.194Z,54.97
2023-03-21T20:25:42.475Z,55.38
2023-03-21T20:28:16.828Z,56.95
2023-03-21T20:30:57.180Z,55.63
2023-03-21T20:33:29.407Z,55.80
2023-03-21T20:36:38.277Z,57.92
2023-03-21T20:38:56.408Z,55.80
2023-03-21T20:41:27.428Z,54.92
2023-03-21T20:44:41.770Z,58.25
2023-03-21T20:49:23.350Z,55.10
2023-03-21T20:54:47.762Z,55.47
2023-03-21T20:57:18.893Z,58.17
2023-03-21T20:59:50.233Z,60.78
2023-03-21T21:02:21.380Z,60.85
2023-03-21T21:05:23.808Z,58.85
2023-03-21T21:07:46.217Z,61.95
2023-03-21T21:10:19.088Z,62.72
2023-03-21T21:12:50.011Z,60.85
2023-03-21T21:15:21.290Z,55.72
2023-03-21T21:18:06.672Z,56.15
2023-03-21T21:20:39.102Z,54.03
2023-03-21T21:23:13.543Z,52.47
2023-03-21T21:25:44.515Z,55.08
2023-03-21T21:28:15.356Z,55.63
2023-03-21T21:30:46.039Z,56.13
2023-03-21T21:33:18.082Z,53.75
2023-03-21T21:35:48.944Z,52.55
2023-03-21T21:38:21.903Z,56.53
2023-03-21T21:40:53.312Z,54.63
2023-03-21T21:43:24.316Z,54.58
2023-03-21T21:45:55.569Z,53.60
2023-03-21T21:48:27.195Z,54.35
2023-03-21T21:50:57.710Z,55.50
2023-03-21T21:53:33.761Z,56.95
2023-03-21T21:56:06.470Z,57.78
2023-03-21T21:58:38.963Z,60.70
2023-03-21T22:01:09.696Z,61.15
2023-03-21T22:03:45.924Z,60.03
2023-03-21T22:06:16.770Z,58.45
2023-03-21T22:08:52.115Z,57.38
2023-03-21T22:11:22.580Z,57.40
2023-03-21T22:13:53.564Z,55.30
2023-03-21T22:16:24.204Z,55.65
2023-03-21T22:18:55.141Z,59.72
2023-03-21T22:21:25.624Z,57.75
2023-03-21T22:23:57.976Z,58.65
2023-03-21T22:26:28.574Z,60.65
2023-03-21T22:29:00.082Z,60.40
2023-03-21T22:31:30.577Z,61.78
2023-03-21T22:34:01.487Z,59.25
2023-03-21T22:36:32.025Z,63.92
2023-03-21T22:39:04.401Z,61.22
2023-03-21T22:41:34.840Z,62.97
2023-03-21T22:44:05.958Z,63.38
2023-03-21T22:46:36.444Z,65.00
2023-03-21T22:49:07.551Z,65.78
2023-03-21T22:51:38.161Z,63.70
2023-03-21T22:54:10.799Z,64.68
2023-03-21T22:56:41.604Z,65.05
2023-03-21T22:59:12.434Z,67.25
2023-03-21T23:01:42.863Z,63.80
2023-03-21T23:04:13.937Z,61.47
2023-03-21T23:06:45.079Z,62.60
2023-03-21T23:09:18.289Z,62.58
2023-03-21T23:11:49.790Z,60.28
2023-03-21T23:14:21.600Z,61.47
2023-03-21T23:16:54.985Z,59.05
2023-03-21T23:19:27.653Z,57.08
2023-03-21T23:21:58.736Z,56.60
2023-03-21T23:24:31.142Z,56.72
2023-03-21T23:27:01.725Z,54.38
2023-03-21T23:29:32.631Z,55.03
2023-03-21T23:32:03.112Z,52.15
2023-03-21T23:34:34.025Z,52.85
2023-03-21T23:37:04.513Z,52.55
2023-03-21T23:39:36.897Z,54.17
2023-03-21T23:42:07.823Z,50.08
2023-03-21T23:44:38.703Z,51.47
2023-03-21T23:47:09.137Z,50.63
2023-03-21T23:49:40.941Z,51.78
2023-03-21T23:52:11.455Z,49.58
2023-03-21T23:54:43.909Z,49.72
2023-03-21T23:57:14.248Z,50.05
2023-03-21T23:59:46.936Z,49.50
